メインページ
METAR-TAF:

METAR-TAF

空港 :

サンクトペテルブルク, ロシア

プルコヴォ空港

緯度: 59-58N, 経度: 030-18E, 海抜: 4m

現時点の気象観測

当レポートは21分前の11:30(UTC)に作成
東/北東の風 4kt、から東/南東の間で変化する
気温 17°C
湿度 48%
気圧 1012 hPa
視程10km以上
高度4300ftの雲はほとんどない

METAR: ULLI 241130Z 07002MPS 010V110 9999 FEW043 17/06 Q1012 R88/090060 NOSIG

時間: 14:51 (11:51 UTC)

予報

当レポートは56分前の10:55(UTC)に作成
予報は24日の 12時(UTC)から 25日の 12時(UTC)まで有効
北東の風 6kt
視程: 6000m
高度1100ftの千切れ雲あり
24日の 12時(UTC)から 25日の 06時(UTC)まで一時的に
北/北東の風 6kt、最大16ktの突風を伴う
視程: 4000m
高度1500ftの千切れ雲あり
高度3000ftの千切れ雲あり, 積乱雲.
弱いにわか雨
25日の 06時(UTC)から 25日の 08時(UTC)まで徐々に
北/北西の風 6kt、最大16ktの突風を伴う
25日の 06時(UTC)から 25日の 09時(UTC)まで一時的に
西の風 10kt、最大19ktの突風を伴う
視程: 3100m
高度700ftの千切れ雲あり
高度1500ftの千切れ雲あり, 積乱雲.
弱いにわか雨

TAF: ULLI 241055Z 2412/2512 05003MPS 6000 BKN011 TEMPO 2412/2506 02003G08MPS 4000 -SHRA BKN015 BKN030CB BECMG 2506/2508 33003G08MPS TEMPO 2506/2509 28005G10MPS 3100 -SHRA BKN007 BKN015CB

4,000以上の空港の気象観測と天気予報(METAR報とTAF報)

利用可能な観測所は地図上に黄色い丸と赤い丸で示す。

丸の上にカーソルを重ねると観測所名を参照できる。

次にクリックすると気象観測と天気予報を参照できる。

マップの切り替え:黒色「×」印の緑ボタンをクリックして拡大、「-」印の緑ボタンをクリックして縮小、緑色の三角印をクリックして隣りの地図に切り替え


METAR-TAF: